Aeroclube de Bento Goncalves Airport


Codes: SSBG/BGV
Name: Aeroclube de Bento Goncalves Airport
City: Bento Goncalves
Country: Brazil
Elevation: 2209 ft.

Photos at Aeroclube de Bento Goncalves Airport


   Photos courtesy of SpottingLog. You can add your own sightings and photos by signing up for a free trial today.



No photos found.

Weather at Aeroclube de Bento Goncalves Airport


Time (UTC)DescriptionTempratureWindCloud coverageVisibilityPressureHumidity
16-Jun-2024 09:00Light Rain16°C0 mph, NE100%3561m1014hPa92%
16-Jun-2024 12:00Light Rain16°C0 mph, S100%3466m1015hPa95%
16-Jun-2024 15:00Moderate Rain17°C0 mph, E100%3570m1016hPa97%
16-Jun-2024 18:00Moderate Rain17°C2 mph, N100%7130m1015hPa99%
16-Jun-2024 21:00Moderate Rain16°C2 mph, NE100%8818m1014hPa100%
17-Jun-2024 00:00Heavy Intensity Rain17°C2 mph, NW100%4531m1014hPa99%
17-Jun-2024 03:00Heavy Intensity Rain17°C0 mph, NE100%1054m1013hPa100%
17-Jun-2024 06:00Heavy Intensity Rain16°C2 mph, SW100%453m1013hPa100%
17-Jun-2024 09:00Moderate Rain16°C0 mph, SE100%597m1013hPa100%
17-Jun-2024 12:00Light Rain15°C2 mph, S100%121m1014hPa100%
17-Jun-2024 15:00Moderate Rain16°C2 mph, N100%0m1013hPa100%
17-Jun-2024 18:00Moderate Rain16°C2 mph, S100%152m1011hPa100%
17-Jun-2024 21:00Heavy Intensity Rain15°C2 mph, SE100%335m1011hPa100%
18-Jun-2024 00:00Heavy Intensity Rain16°C0 mph, N100%0m1012hPa100%
18-Jun-2024 03:00Heavy Intensity Rain16°C0 mph, NE100%754m1012hPa100%
18-Jun-2024 06:00Moderate Rain15°C4 mph, NE100%10000m1012hPa99%
18-Jun-2024 09:00Moderate Rain15°C4 mph, N100%10000m1011hPa100%
18-Jun-2024 12:00Light Rain16°C4 mph, N83%9148m1012hPa98%
18-Jun-2024 15:00Light Rain20°C7 mph, N62%10000m1011hPa86%
18-Jun-2024 18:00Broken Clouds22°C7 mph, NW84%10000m1009hPa77%
18-Jun-2024 21:00Scattered Clouds18°C2 mph, NE47%10000m1010hPa98%
19-Jun-2024 00:00Scattered Clouds16°C2 mph, NE39%10000m1012hPa99%
19-Jun-2024 03:00Light Rain15°C2 mph, NE2%10000m1012hPa98%
19-Jun-2024 06:00Light Rain15°C2 mph, NE33%10000m1012hPa97%
19-Jun-2024 09:00Light Rain14°C4 mph, NE93%10000m1012hPa97%
19-Jun-2024 12:00Light Rain15°C2 mph, NW96%10000m1015hPa95%
19-Jun-2024 15:00Overcast Clouds17°C2 mph, NE100%10000m1014hPa88%
19-Jun-2024 18:00Light Rain17°C2 mph, N100%10000m1014hPa94%
19-Jun-2024 21:00Light Rain15°C0 mph, E100%10000m1014hPa97%
20-Jun-2024 00:00Light Rain15°C2 mph, NE99%10000m1015hPa97%
20-Jun-2024 03:00Light Rain15°C2 mph, N100%10000m1016hPa98%
20-Jun-2024 06:00Light Rain15°C4 mph, NE100%10000m1016hPa98%
20-Jun-2024 09:00Light Rain15°C2 mph, NE100%10000m1016hPa99%
20-Jun-2024 12:00Light Rain15°C2 mph, NE100%10000m1019hPa99%
20-Jun-2024 15:00Light Rain17°C4 mph, NE100%10000m1018hPa97%
20-Jun-2024 18:00Light Rain18°C2 mph, NE100%10000m1016hPa93%
20-Jun-2024 21:00Overcast Clouds16°C2 mph, NE100%10000m1017hPa97%
21-Jun-2024 00:00Overcast Clouds15°C2 mph, NE100%10000m1018hPa96%
21-Jun-2024 03:00Overcast Clouds15°C2 mph, NE100%10000m1017hPa96%
21-Jun-2024 06:00Overcast Clouds15°C4 mph, NE99%10000m1017hPa95%